Time;durP1;ratioP1;P1;durP2;ratioP2;P2;SDS_P1;SDS_P2;PMS_P1;PMS_P2;Temp;Humidity;BMP_temperature;BMP_pressure;BME280_temperature;BME280_humidity;BME280_pressure;Samples;Min_cycle;Max_cycle;Signal;HPM_P1;HPM_P2
2023/12/18 00:01:36;;;;;;;35.63;25.08;;;5.60;93.40;;;;;;5004112;28;20038;-70
2023/12/18 00:04:07;;;;;;;35.95;24.00;;;5.60;93.40;;;;;;5001747;28;20029;-70
2023/12/18 00:06:32;;;;;;;35.28;25.42;;;5.70;93.50;;;;;;5002376;28;20038;-71
2023/12/18 00:08:58;;;;;;;34.63;24.08;;;5.60;93.50;;;;;;4997718;28;20030;-70
2023/12/18 00:11:24;;;;;;;34.78;24.70;;;5.60;93.50;;;;;;5006703;28;20072;-71
2023/12/18 00:13:49;;;;;;;33.50;24.70;;;5.60;93.40;;;;;;5003899;28;20099;-71
2023/12/18 00:16:15;;;;;;;34.75;25.00;;;5.70;93.40;;;;;;5005047;28;20044;-71
2023/12/18 00:18:40;;;;;;;34.22;24.80;;;5.70;93.40;;;;;;4998969;28;20085;-70
2023/12/18 00:21:06;;;;;;;36.47;26.67;;;5.70;93.20;;;;;;4995382;28;20378;-70
2023/12/18 00:23:31;;;;;;;37.65;26.25;;;5.70;93.20;;;;;;5004663;28;20037;-71
2023/12/18 00:25:57;;;;;;;35.35;26.17;;;5.70;93.30;;;;;;5003639;28;20553;-70
2023/12/18 00:28:23;;;;;;;35.88;25.92;;;5.70;93.30;;;;;;5003680;28;20033;-72
2023/12/18 00:30:48;;;;;;;37.58;25.60;;;5.70;93.30;;;;;;4993497;28;20513;-71
2023/12/18 00:33:14;;;;;;;33.33;26.27;;;5.60;93.30;;;;;;5001106;28;20034;-72
2023/12/18 00:35:40;;;;;;;37.42;25.63;;;5.70;93.30;;;;;;4995814;28;20072;-71
2023/12/18 00:38:05;;;;;;;33.33;25.20;;;5.70;93.30;;;;;;4998734;28;20081;-72
2023/12/18 00:40:31;;;;;;;38.03;26.80;;;5.60;93.20;;;;;;4998131;28;20382;-70
2023/12/18 00:42:57;;;;;;;36.05;25.13;;;5.60;93.20;;;;;;4997953;28;20379;-72
2023/12/18 00:45:23;;;;;;;33.03;24.63;;;5.60;93.10;;;;;;5001159;28;20116;-71
2023/12/18 00:47:48;;;;;;;32.33;24.35;;;5.60;93.10;;;;;;4981807;28;20122;-71
2023/12/18 00:50:14;;;;;;;32.55;24.55;;;5.50;93.00;;;;;;4989258;28;20545;-71
2023/12/18 00:52:40;;;;;;;33.78;24.65;;;5.40;93.10;;;;;;4997804;28;20505;-70
2023/12/18 00:55:07;;;;;;;37.55;25.52;;;5.40;93.30;;;;;;5000944;28;20029;-71
2023/12/18 00:57:34;;;;;;;36.83;24.75;;;5.40;93.30;;;;;;5000202;28;20435;-71
2023/12/18 01:00:00;;;;;;;35.58;26.35;;;5.40;93.20;;;;;;4999431;28;20038;-72
2023/12/18 01:02:25;;;;;;;33.00;24.55;;;5.30;93.40;;;;;;5001263;28;20044;-71
2023/12/18 01:04:51;;;;;;;33.45;25.00;;;5.30;93.40;;;;;;5003546;28;20034;-71
2023/12/18 01:07:17;;;;;;;37.97;26.00;;;5.30;93.40;;;;;;4998307;28;20038;-70
2023/12/18 01:09:42;;;;;;;34.42;25.05;;;5.30;93.40;;;;;;4995021;28;20034;-71
2023/12/18 01:12:08;;;;;;;32.58;25.05;;;5.30;93.40;;;;;;4997124;28;20128;-70
2023/12/18 01:14:34;;;;;;;33.83;23.42;;;5.30;93.60;;;;;;4999022;28;20037;-70
2023/12/18 01:16:59;;;;;;;37.28;27.42;;;5.30;93.60;;;;;;5000238;28;20371;-72
2023/12/18 01:19:25;;;;;;;37.30;26.52;;;5.30;93.60;;;;;;4978552;28;20054;-70
2023/12/18 01:21:51;;;;;;;35.55;24.05;;;5.30;93.60;;;;;;5001036;28;20100;-71
2023/12/18 01:24:17;;;;;;;34.95;26.33;;;5.30;93.70;;;;;;5000582;28;20475;-71
2023/12/18 01:26:43;;;;;;;34.75;25.60;;;5.30;93.70;;;;;;4996128;28;20483;-71
2023/12/18 01:29:09;;;;;;;37.00;26.38;;;5.30;93.80;;;;;;5004131;28;20081;-71
2023/12/18 01:31:35;;;;;;;33.78;24.55;;;5.30;93.80;;;;;;5001096;28;20046;-71
2023/12/18 01:34:00;;;;;;;34.30;25.98;;;5.40;93.80;;;;;;5000013;28;20097;-71
2023/12/18 01:36:26;;;;;;;39.10;25.70;;;5.40;93.80;;;;;;5005210;28;20038;-70
2023/12/18 01:38:51;;;;;;;39.75;25.48;;;5.40;93.80;;;;;;5006306;28;20025;-71
2023/12/18 01:41:17;;;;;;;36.67;26.42;;;5.30;93.90;;;;;;4995076;28;20108;-72
2023/12/18 01:43:43;;;;;;;35.80;26.40;;;5.30;93.90;;;;;;5004558;28;20036;-70
2023/12/18 01:46:12;;;;;;;36.92;26.15;;;5.40;93.90;;;;;;5005973;28;20034;-70
2023/12/18 01:48:38;;;;;;;34.65;25.23;;;5.40;93.90;;;;;;4985841;28;20030;-71
2023/12/18 01:51:04;;;;;;;36.65;25.80;;;5.50;93.90;;;;;;4996850;28;20542;-70
2023/12/18 01:53:38;;;;;;;35.13;25.30;;;5.50;93.70;;;;;;4997554;28;20390;-71
2023/12/18 01:56:05;;;;;;;;;;;5.50;93.80;;;;;;5004824;28;20042;-71
2023/12/18 01:58:33;;;;;;;38.00;25.63;;;5.50;93.80;;;;;;4990977;28;19921;-70
2023/12/18 02:01:00;;;;;;;35.35;25.92;;;5.50;93.90;;;;;;5000634;28;20135;-71
2023/12/18 02:03:28;;;;;;;38.72;26.73;;;5.50;94.10;;;;;;4999569;28;20080;-71
2023/12/18 02:05:55;;;;;;;38.42;27.50;;;5.60;94.20;;;;;;5003094;28;20037;-70
2023/12/18 02:08:21;;;;;;;37.40;27.02;;;5.60;94.20;;;;;;5002828;28;20026;-70
2023/12/18 02:10:47;;;;;;;38.28;27.23;;;5.60;94.20;;;;;;5002947;28;20053;-71
2023/12/18 02:13:12;;;;;;;37.45;27.77;;;5.60;94.10;;;;;;5005691;28;20432;-70
2023/12/18 02:15:39;;;;;;;37.45;25.80;;;5.60;94.20;;;;;;5001406;28;20439;-70
2023/12/18 02:18:05;;;;;;;37.78;26.77;;;5.60;94.20;;;;;;4994808;28;20525;-69
2023/12/18 02:20:30;;;;;;;41.53;27.08;;;5.60;94.20;;;;;;5003758;28;20042;-70
2023/12/18 02:22:56;;;;;;;36.22;26.52;;;5.60;94.10;;;;;;5004251;28;20077;-71
2023/12/18 02:25:22;;;;;;;36.35;26.02;;;5.50;94.30;;;;;;5004134;28;20506;-70
2023/12/18 02:27:49;;;;;;;36.10;25.52;;;5.60;94.30;;;;;;4997840;28;20394;-69
2023/12/18 02:30:16;;;;;;;38.70;26.75;;;5.50;94.40;;;;;;5000299;28;20061;-69
2023/12/18 02:32:42;;;;;;;40.03;26.23;;;5.50;94.40;;;;;;5002499;28;20093;-69
2023/12/18 02:35:09;;;;;;;40.92;27.63;;;5.50;94.50;;;;;;4986077;28;20100;-71
2023/12/18 02:37:34;;;;;;;37.97;27.13;;;5.60;94.60;;;;;;5000028;28;20041;-69
2023/12/18 02:40:00;;;;;;;32.55;24.55;;;5.60;94.60;;;;;;5001141;28;20405;-71
2023/12/18 02:42:26;;;;;;;36.13;26.25;;;5.60;94.70;;;;;;5001953;28;20046;-70
2023/12/18 02:44:52;;;;;;;35.75;25.05;;;5.60;94.60;;;;;;4998701;28;20369;-70
2023/12/18 02:47:18;;;;;;;38.65;26.58;;;5.60;94.50;;;;;;5003914;28;20038;-69
2023/12/18 02:49:44;;;;;;;36.25;25.58;;;5.60;94.50;;;;;;5004816;28;20419;-70
2023/12/18 02:52:10;;;;;;;36.15;25.50;;;5.70;94.50;;;;;;4994689;28;20044;-70
2023/12/18 02:54:36;;;;;;;37.80;25.55;;;5.60;94.50;;;;;;5004044;28;20083;-70
2023/12/18 02:57:02;;;;;;;36.65;26.88;;;5.60;94.60;;;;;;5005079;28;20057;-70
2023/12/18 02:59:28;;;;;;;33.55;25.70;;;5.60;94.60;;;;;;5002256;28;20026;-71
2023/12/18 03:01:54;;;;;;;37.00;26.00;;;5.60;94.70;;;;;;5006009;28;20398;-71
2023/12/18 03:04:20;;;;;;;38.58;28.38;;;5.70;94.60;;;;;;4997452;28;20152;-69
2023/12/18 03:06:46;;;;;;;37.50;25.40;;;5.70;94.70;;;;;;5004280;28;20227;-70
2023/12/18 03:09:12;;;;;;;36.72;26.25;;;5.70;94.70;;;;;;5003045;28;20030;-69
2023/12/18 03:11:40;;;;;;;38.92;25.52;;;5.70;94.60;;;;;;4998937;28;20506;-71
2023/12/18 03:14:05;;;;;;;36.72;26.25;;;5.70;94.60;;;;;;4998527;28;20026;-71
2023/12/18 03:16:31;;;;;;;37.72;28.08;;;5.70;94.50;;;;;;5002615;28;20092;-69
2023/12/18 03:18:56;;;;;;;38.63;27.30;;;5.80;94.60;;;;;;5001655;28;20518;-69
2023/12/18 03:21:22;;;;;;;43.05;27.33;;;5.80;94.60;;;;;;5000463;28;20073;-70
2023/12/18 03:23:48;;;;;;;37.85;25.83;;;5.80;94.70;;;;;;5004145;28;20542;-69
2023/12/18 03:26:13;;;;;;;40.75;26.58;;;5.80;94.60;;;;;;5000186;28;20497;-70
2023/12/18 03:28:39;;;;;;;35.60;24.83;;;5.80;94.70;;;;;;5003608;28;20501;-70
2023/12/18 03:31:04;;;;;;;41.13;26.08;;;5.90;94.70;;;;;;5001777;28;20038;-69
2023/12/18 03:33:30;;;;;;;38.28;25.80;;;5.90;94.70;;;;;;4999092;28;20029;-71
2023/12/18 03:35:56;;;;;;;37.63;26.05;;;5.90;94.70;;;;;;4999090;28;20100;-70
2023/12/18 03:38:22;;;;;;;37.22;25.08;;;5.90;94.70;;;;;;4982345;28;20045;-70
2023/12/18 03:40:47;;;;;;;34.58;24.90;;;5.90;94.70;;;;;;5002236;28;20050;-69
2023/12/18 03:43:13;;;;;;;34.05;25.40;;;6.00;94.70;;;;;;4983477;28;20081;-69
2023/12/18 03:45:39;;;;;;;33.25;24.05;;;6.00;94.70;;;;;;5007067;28;20749;-71
2023/12/18 03:48:05;;;;;;;41.75;26.52;;;6.00;94.70;;;;;;4981424;28;20038;-69
2023/12/18 03:50:30;;;;;;;35.40;26.80;;;6.00;94.60;;;;;;4999829;28;20034;-69
2023/12/18 03:52:56;;;;;;;32.22;24.65;;;6.00;94.70;;;;;;5003328;28;20060;-70
2023/12/18 03:55:22;;;;;;;37.47;24.80;;;6.00;94.50;;;;;;4996881;28;20038;-70
2023/12/18 03:57:47;;;;;;;35.17;25.48;;;6.00;94.40;;;;;;4999973;28;20046;-71
2023/12/18 04:00:14;;;;;;;38.17;26.10;;;6.00;94.40;;;;;;5001705;28;20029;-70
2023/12/18 04:02:40;;;;;;;38.92;26.83;;;6.00;94.50;;;;;;5003549;28;20069;-69
2023/12/18 04:05:06;;;;;;;35.92;26.15;;;6.00;94.40;;;;;;5001882;28;20057;-71
2023/12/18 04:07:32;;;;;;;36.83;25.02;;;5.90;94.30;;;;;;5002243;28;20113;-71
2023/12/18 04:09:58;;;;;;;38.88;26.95;;;5.90;94.40;;;;;;5004086;28;20550;-70
2023/12/18 04:12:23;;;;;;;35.58;26.27;;;5.90;94.50;;;;;;5001785;28;20033;-69
2023/12/18 04:14:49;;;;;;;37.13;25.88;;;5.90;94.40;;;;;;5004036;28;20390;-70
2023/12/18 04:17:14;;;;;;;36.10;24.90;;;5.90;94.50;;;;;;5002648;28;20487;-70
2023/12/18 04:19:40;;;;;;;35.90;24.77;;;5.90;94.50;;;;;;4997226;28;20044;-70
2023/12/18 04:22:06;;;;;;;36.88;25.55;;;5.90;94.50;;;;;;5002195;28;20046;-70
2023/12/18 04:24:31;;;;;;;39.00;24.75;;;5.90;94.60;;;;;;5004378;28;20109;-70
2023/12/18 04:26:57;;;;;;;34.17;25.05;;;5.90;94.60;;;;;;5001321;28;20084;-70
2023/12/18 04:29:23;;;;;;;37.20;26.10;;;5.90;94.70;;;;;;4998480;28;20030;-70
2023/12/18 04:31:51;;;;;;;35.05;26.00;;;5.80;94.70;;;;;;5008852;28;20041;-71
2023/12/18 04:34:17;;;;;;;42.42;26.77;;;5.90;94.70;;;;;;4999130;28;20385;-70
2023/12/18 04:36:43;;;;;;;35.72;24.33;;;5.90;94.70;;;;;;4999083;28;20519;-71
2023/12/18 04:39:10;;;;;;;35.22;24.38;;;5.90;94.70;;;;;;4999426;28;20065;-70
2023/12/18 04:41:36;;;;;;;39.05;25.10;;;5.90;94.50;;;;;;4998318;28;20118;-70
2023/12/18 04:44:02;;;;;;;36.72;25.27;;;5.80;94.50;;;;;;5002369;28;20104;-70
2023/12/18 04:46:33;;;;;;;39.17;26.33;;;5.80;94.60;;;;;;4999718;28;20482;-70
2023/12/18 04:48:58;;;;;;;36.78;27.02;;;5.80;94.60;;;;;;5001741;28;20030;-70
2023/12/18 04:51:24;;;;;;;38.90;26.65;;;5.80;94.60;;;;;;5001970;28;20045;-70
2023/12/18 04:53:49;;;;;;;34.90;25.17;;;5.80;94.70;;;;;;4991084;28;20519;-69
2023/12/18 04:56:15;;;;;;;37.70;26.20;;;5.80;94.60;;;;;;4980985;28;20067;-71
2023/12/18 04:58:40;;;;;;;37.05;26.85;;;5.70;94.60;;;;;;4997648;28;20038;-70
2023/12/18 05:01:06;;;;;;;35.97;25.90;;;5.80;94.60;;;;;;4995278;28;20038;-70
2023/12/18 05:03:32;;;;;;;35.20;26.38;;;5.70;94.60;;;;;;4998559;28;20505;-70
2023/12/18 05:05:57;;;;;;;38.75;26.95;;;5.70;94.50;;;;;;4997446;28;20042;-70
2023/12/18 05:08:23;;;;;;;38.53;27.55;;;5.70;94.60;;;;;;5003133;28;20390;-71
2023/12/18 05:10:48;;;;;;;38.15;28.25;;;5.70;94.60;;;;;;5002765;28;20037;-70
2023/12/18 05:13:14;;;;;;;39.92;27.80;;;5.70;94.70;;;;;;5004554;28;20026;-70
2023/12/18 05:15:40;;;;;;;41.88;28.67;;;5.70;94.70;;;;;;5007342;28;20037;-70
2023/12/18 05:18:06;;;;;;;38.75;28.38;;;5.60;94.90;;;;;;5005181;28;20458;-70
2023/12/18 05:20:31;;;;;;;38.92;29.15;;;5.60;94.70;;;;;;4998871;28;20488;-70
2023/12/18 05:22:57;;;;;;;42.42;29.02;;;5.60;94.80;;;;;;5004334;28;20136;-70
2023/12/18 05:25:23;;;;;;;39.95;29.25;;;5.60;94.80;;;;;;5005484;28;20502;-71
2023/12/18 05:27:48;;;;;;;42.63;30.10;;;5.60;94.90;;;;;;5000097;28;20487;-72
2023/12/18 05:30:14;;;;;;;41.22;30.17;;;5.60;95.00;;;;;;5005554;28;20111;-70
2023/12/18 05:32:40;;;;;;;43.58;29.50;;;5.60;94.90;;;;;;5011307;28;20379;-71
2023/12/18 05:35:05;;;;;;;45.72;30.13;;;5.60;94.90;;;;;;4985625;28;20033;-71
2023/12/18 05:37:31;;;;;;;47.20;30.35;;;5.60;94.90;;;;;;5004860;28;20107;-71
2023/12/18 05:39:57;;;;;;;44.45;30.42;;;5.50;94.90;;;;;;5005306;28;20037;-72
2023/12/18 05:42:22;;;;;;;42.38;31.88;;;5.50;95.00;;;;;;5004213;28;20509;-70
2023/12/18 05:44:48;;;;;;;39.05;29.55;;;5.50;95.00;;;;;;4998924;28;20064;-70
2023/12/18 05:47:13;;;;;;;40.58;30.60;;;5.50;95.00;;;;;;5003633;28;20398;-72
2023/12/18 05:49:39;;;;;;;43.42;31.55;;;5.50;94.90;;;;;;4983449;28;20030;-71
2023/12/18 05:52:05;;;;;;;42.67;30.33;;;5.50;95.00;;;;;;4997625;28;20222;-72
2023/12/18 05:54:31;;;;;;;46.22;30.08;;;5.50;95.00;;;;;;4993674;28;20656;-71
2023/12/18 05:56:57;;;;;;;44.58;30.67;;;5.50;95.00;;;;;;5002502;28;20052;-71
2023/12/18 05:59:23;;;;;;;44.80;31.38;;;5.50;95.10;;;;;;5002320;28;20025;-72
2023/12/18 06:01:48;;;;;;;45.53;31.05;;;5.60;95.20;;;;;;4984067;28;20080;-70
2023/12/18 06:04:14;;;;;;;44.15;29.30;;;5.60;95.20;;;;;;4993546;28;20463;-70
2023/12/18 06:06:40;;;;;;;39.35;28.13;;;5.60;95.10;;;;;;5000798;28;20387;-70
2023/12/18 06:09:06;;;;;;;43.10;29.55;;;5.60;95.20;;;;;;5001066;28;20029;-70
2023/12/18 06:11:33;;;;;;;45.05;30.15;;;5.60;95.30;;;;;;5004396;28;20049;-72
2023/12/18 06:13:59;;;;;;;43.17;29.27;;;5.60;95.30;;;;;;5003508;28;20037;-70
2023/12/18 06:16:24;;;;;;;44.70;29.67;;;5.60;95.40;;;;;;4990578;28;20041;-69
2023/12/18 06:18:50;;;;;;;44.15;28.30;;;5.60;95.30;;;;;;5004974;28;20034;-71
2023/12/18 06:21:16;;;;;;;37.67;28.60;;;5.60;95.50;;;;;;5003866;28;20080;-69
2023/12/18 06:23:43;;;;;;;47.88;28.83;;;5.70;95.50;;;;;;5000159;28;20446;-70
2023/12/18 06:26:09;;;;;;;38.65;28.75;;;5.70;95.40;;;;;;4998430;28;20054;-71
2023/12/18 06:28:34;;;;;;;41.80;29.67;;;5.70;95.40;;;;;;5002522;28;20398;-70
2023/12/18 06:31:00;;;;;;;39.58;28.38;;;5.70;95.40;;;;;;4999790;28;20117;-72
2023/12/18 06:33:26;;;;;;;44.03;28.33;;;5.80;95.40;;;;;;4999232;28;20422;-70
2023/12/18 06:36:00;;;;;;;42.53;29.25;;;5.80;95.40;;;;;;4991466;28;20045;-72
2023/12/18 06:38:25;;;;;;;40.78;27.20;;;5.80;95.40;;;;;;4999230;28;20073;-73
2023/12/18 06:40:54;;;;;;;42.40;28.17;;;5.80;95.40;;;;;;5003371;28;20641;-70
2023/12/18 06:43:19;;;;;;;44.13;28.80;;;5.80;95.40;;;;;;4999568;28;20042;-69
2023/12/18 06:45:45;;;;;;;47.40;29.60;;;5.80;95.40;;;;;;5006423;28;20038;-71
2023/12/18 06:48:11;;;;;;;41.42;29.38;;;5.80;95.40;;;;;;5002734;28;20058;-69
2023/12/18 06:50:36;;;;;;;44.00;30.13;;;5.70;95.40;;;;;;5003188;28;20034;-70
2023/12/18 06:53:02;;;;;;;44.05;30.55;;;5.70;95.50;;;;;;4996132;28;20475;-71
2023/12/18 06:55:28;;;;;;;42.30;28.63;;;5.80;95.50;;;;;;4986622;28;20041;-70
2023/12/18 06:57:54;;;;;;;46.25;30.52;;;5.80;95.40;;;;;;5002671;28;20044;-70
2023/12/18 07:00:19;;;;;;;49.15;31.00;;;5.70;95.50;;;;;;4987676;28;20033;-70
2023/12/18 07:02:45;;;;;;;46.90;29.13;;;5.70;95.70;;;;;;5001176;28;20521;-69
2023/12/18 07:05:16;;;;;;;46.33;30.45;;;5.70;95.70;;;;;;5003936;28;20403;-70
2023/12/18 07:07:41;;;;;;;47.28;29.48;;;5.70;95.70;;;;;;5002186;28;20048;-70
2023/12/18 07:10:07;;;;;;;47.88;30.20;;;5.70;95.80;;;;;;4997321;28;20037;-70
2023/12/18 07:12:33;;;;;;;57.72;31.08;;;5.70;95.70;;;;;;5001017;28;20037;-70
2023/12/18 07:14:58;;;;;;;48.70;31.02;;;5.80;95.70;;;;;;4995749;28;20117;-72
2023/12/18 07:17:24;;;;;;;47.83;31.30;;;5.80;96.00;;;;;;5001352;28;20698;-71
2023/12/18 07:19:49;;;;;;;50.00;32.13;;;5.70;95.80;;;;;;5001980;28;20334;-70
2023/12/18 07:22:15;;;;;;;51.40;29.35;;;5.80;95.70;;;;;;5000406;28;20624;-70
2023/12/18 07:24:41;;;;;;;50.03;30.42;;;5.80;95.60;;;;;;4997385;28;20034;-70
2023/12/18 07:27:07;;;;;;;50.88;30.38;;;5.80;95.60;;;;;;5002852;28;20037;-70
2023/12/18 07:29:32;;;;;;;47.72;31.25;;;5.80;95.60;;;;;;5001339;28;20025;-70
2023/12/18 07:31:58;;;;;;;53.33;30.65;;;5.90;95.60;;;;;;4990622;28;20037;-70
2023/12/18 07:34:23;;;;;;;47.03;28.60;;;5.80;95.60;;;;;;4998668;28;20113;-69
2023/12/18 07:36:49;;;;;;;50.22;31.20;;;5.80;95.70;;;;;;4976833;28;20042;-70
2023/12/18 07:39:15;;;;;;;49.35;31.15;;;5.80;95.60;;;;;;5004331;28;20088;-70
2023/12/18 07:41:40;;;;;;;51.22;31.13;;;5.80;95.60;;;;;;4999693;28;20046;-69
2023/12/18 07:44:06;;;;;;;50.67;31.33;;;5.80;95.60;;;;;;4999786;28;20061;-69
2023/12/18 07:46:32;;;;;;;46.65;29.75;;;5.80;95.60;;;;;;4987382;28;20034;-69
2023/12/18 07:48:57;;;;;;;49.50;31.02;;;5.90;95.70;;;;;;4997953;28;20022;-71
2023/12/18 07:51:23;;;;;;;54.22;30.92;;;5.80;95.60;;;;;;4997662;28;20046;-70
2023/12/18 07:53:49;;;;;;;49.97;30.73;;;5.80;95.70;;;;;;5001079;28;20042;-70
2023/12/18 07:56:15;;;;;;;47.85;32.33;;;5.90;95.80;;;;;;4999890;28;20536;-69
2023/12/18 07:58:41;;;;;;;49.33;31.50;;;5.90;95.70;;;;;;4995889;28;20467;-71
2023/12/18 08:01:06;;;;;;;50.33;30.67;;;5.90;95.70;;;;;;4998772;28;20478;-70
2023/12/18 08:03:32;;;;;;;45.92;31.33;;;5.90;95.60;;;;;;5002823;28;20407;-69
2023/12/18 08:05:57;;;;;;;48.63;28.92;;;5.90;95.50;;;;;;4982858;28;20034;-69
2023/12/18 08:08:23;;;;;;;47.53;30.13;;;6.00;95.50;;;;;;5000900;28;20025;-73
2023/12/18 08:10:49;;;;;;;49.72;29.65;;;5.90;95.50;;;;;;5001170;28;20029;-71
2023/12/18 08:13:15;;;;;;;47.58;28.38;;;5.90;95.50;;;;;;5003924;28;20038;-74
2023/12/18 08:15:40;;;;;;;44.38;28.83;;;5.90;95.40;;;;;;4999367;28;20125;-75
2023/12/18 08:18:06;;;;;;;44.97;28.92;;;5.90;95.50;;;;;;5001105;28;20474;-74
2023/12/18 08:20:31;;;;;;;44.50;27.95;;;5.80;95.60;;;;;;4999239;28;20427;-74
2023/12/18 08:22:57;;;;;;;45.05;28.75;;;5.80;95.50;;;;;;5000201;28;20116;-70
2023/12/18 08:25:24;;;;;;;45.05;27.92;;;5.90;95.50;;;;;;5000504;28;20530;-70
2023/12/18 08:27:50;;;;;;;42.35;27.73;;;5.90;95.50;;;;;;4990871;28;20450;-71
2023/12/18 08:30:16;;;;;;;43.90;28.17;;;5.90;95.50;;;;;;4993779;28;20038;-71
2023/12/18 08:32:42;;;;;;;46.67;29.02;;;5.90;95.40;;;;;;4997370;28;20046;-72
2023/12/18 08:35:08;;;;;;;43.33;27.50;;;5.90;95.50;;;;;;4996653;28;20525;-70
2023/12/18 08:37:33;;;;;;;43.38;27.35;;;5.90;95.40;;;;;;4994237;28;20030;-69
2023/12/18 08:39:59;;;;;;;44.03;26.83;;;5.90;95.30;;;;;;4983020;28;20107;-73
2023/12/18 08:42:25;;;;;;;47.80;28.88;;;5.90;95.40;;;;;;4999371;28;20070;-69
2023/12/18 08:44:53;;;;;;;43.85;27.67;;;5.90;95.30;;;;;;4994095;28;20486;-69
2023/12/18 08:47:19;;;;;;;47.60;28.23;;;5.80;95.30;;;;;;4996632;28;20046;-69
2023/12/18 08:49:44;;;;;;;41.65;26.70;;;5.90;95.30;;;;;;4997824;28;21367;-71
2023/12/18 08:52:10;;;;;;;43.83;27.35;;;5.80;95.40;;;;;;4995184;28;20041;-69
2023/12/18 08:54:35;;;;;;;44.90;28.05;;;5.90;95.40;;;;;;4998783;28;20483;-68
2023/12/18 08:57:01;;;;;;;43.58;27.95;;;5.90;95.40;;;;;;4998206;28;20042;-68
2023/12/18 08:59:27;;;;;;;47.22;28.20;;;5.90;95.30;;;;;;4980213;28;20022;-68
2023/12/18 09:01:53;;;;;;;41.28;26.33;;;5.90;95.20;;;;;;4991788;28;20053;-69
2023/12/18 09:04:18;;;;;;;45.80;28.63;;;5.90;95.30;;;;;;4996831;28;20448;-71
2023/12/18 09:06:44;;;;;;;45.63;27.23;;;5.90;95.20;;;;;;4991363;28;20033;-69
2023/12/18 09:09:09;;;;;;;44.10;26.52;;;5.90;95.10;;;;;;4999065;28;20022;-68
2023/12/18 09:11:35;;;;;;;41.72;27.52;;;5.90;95.10;;;;;;4991227;28;20042;-70
2023/12/18 09:14:03;;;;;;;42.38;26.42;;;5.80;95.10;;;;;;4995841;28;20114;-71
2023/12/18 09:16:29;;;;;;;43.15;25.92;;;5.90;95.10;;;;;;4998487;28;20475;-71
2023/12/18 09:18:57;;;;;;;41.65;26.73;;;5.80;95.20;;;;;;4992883;28;20032;-72
2023/12/18 09:21:23;;;;;;;40.67;26.25;;;5.80;95.10;;;;;;4977261;28;20378;-71
2023/12/18 09:23:49;;;;;;;41.65;27.13;;;5.80;95.10;;;;;;5000463;28;20022;-72
2023/12/18 09:26:15;;;;;;;39.88;25.23;;;5.90;95.00;;;;;;4996701;28;20105;-70
2023/12/18 09:28:42;;;;;;;38.17;24.90;;;5.90;95.00;;;;;;4999240;28;20030;-71
2023/12/18 09:31:08;;;;;;;43.25;26.00;;;5.90;94.90;;;;;;5000459;28;20053;-71
2023/12/18 09:33:34;;;;;;;42.25;25.55;;;5.90;94.90;;;;;;4982360;28;20014;-70
2023/12/18 09:36:03;;;;;;;39.45;25.20;;;6.00;94.90;;;;;;4980814;28;20110;-70
2023/12/18 09:38:28;;;;;;;40.95;26.02;;;6.10;94.70;;;;;;4999703;28;20048;-70
2023/12/18 09:40:54;;;;;;;38.25;24.08;;;6.00;94.60;;;;;;4996862;28;20030;-70
2023/12/18 09:43:23;;;;;;;41.60;26.05;;;6.10;94.60;;;;;;4999202;28;20376;-71
2023/12/18 09:45:49;;;;;;;36.50;24.48;;;6.00;94.50;;;;;;4982986;28;20093;-71
2023/12/18 09:48:18;;;;;;;40.08;25.80;;;6.00;94.60;;;;;;5001635;28;20549;-71
2023/12/18 09:50:45;;;;;;;40.75;25.42;;;6.00;94.50;;;;;;4998508;28;20031;-69
2023/12/18 09:53:13;;;;;;;40.70;24.13;;;6.00;94.50;;;;;;5002251;28;20101;-72
2023/12/18 09:55:40;;;;;;;37.92;23.63;;;6.10;94.50;;;;;;4997750;28;20040;-70
2023/12/18 09:58:13;;;;;;;38.20;23.98;;;6.10;94.60;;;;;;5000519;28;20487;-70
2023/12/18 10:00:39;;;;;;;38.10;24.73;;;6.10;94.50;;;;;;4982792;28;20414;-71
2023/12/18 10:03:05;;;;;;;39.97;23.95;;;6.10;94.40;;;;;;4998966;28;20029;-70
2023/12/18 10:05:31;;;;;;;40.40;25.23;;;6.10;94.30;;;;;;4998735;28;20464;-69
2023/12/18 10:08:01;;;;;;;36.95;24.02;;;6.20;94.40;;;;;;4983934;28;20046;-71
2023/12/18 10:10:27;;;;;;;37.40;23.83;;;6.20;94.30;;;;;;4992768;28;20034;-70
2023/12/18 10:12:53;;;;;;;37.80;24.42;;;6.20;94.20;;;;;;4984529;28;20041;-69
2023/12/18 10:15:19;;;;;;;40.97;25.65;;;6.20;94.20;;;;;;5004875;28;20445;-72
2023/12/18 10:17:45;;;;;;;40.50;24.42;;;6.20;94.50;;;;;;5002977;28;20053;-70
2023/12/18 10:20:12;;;;;;;35.22;23.35;;;6.20;94.40;;;;;;5001177;28;20060;-70
2023/12/18 10:22:41;;;;;;;37.28;22.70;;;6.30;94.20;;;;;;4996085;28;20064;-69
2023/12/18 10:25:10;;;;;;;38.83;24.15;;;6.30;94.30;;;;;;5003144;28;20026;-71
2023/12/18 10:27:38;;;;;;;41.15;22.02;;;6.40;94.20;;;;;;4994691;28;20096;-71
2023/12/18 10:30:08;;;;;;;34.65;23.38;;;6.30;94.10;;;;;;5001929;28;20034;-72
2023/12/18 10:32:37;;;;;;;39.67;23.20;;;6.40;94.00;;;;;;5001702;28;20068;-70
2023/12/18 10:35:06;;;;;;;37.20;22.90;;;6.30;94.10;;;;;;5002543;28;20121;-68
2023/12/18 10:37:33;;;;;;;39.75;23.98;;;6.50;94.00;;;;;;5000246;28;20037;-72
2023/12/18 10:40:03;;;;;;;36.97;22.17;;;6.40;93.80;;;;;;5003619;28;20484;-70
2023/12/18 10:42:37;;;;;;;36.90;22.63;;;6.40;93.90;;;;;;4994879;28;20074;-70
2023/12/18 10:45:06;;;;;;;38.42;23.50;;;6.50;93.90;;;;;;4987141;28;20034;-69
2023/12/18 10:47:33;;;;;;;36.88;23.35;;;6.40;93.70;;;;;;5002247;28;20048;-69
2023/12/18 10:50:03;;;;;;;39.60;23.40;;;6.50;93.90;;;;;;5001404;28;20030;-70
2023/12/18 10:52:30;;;;;;;35.83;23.70;;;6.40;93.60;;;;;;4995419;28;21815;-71
2023/12/18 10:55:04;;;;;;;35.33;22.75;;;6.50;93.70;;;;;;4982788;28;20073;-71
2023/12/18 10:57:32;;;;;;;36.25;22.48;;;6.50;93.60;;;;;;4991908;28;20497;-71
2023/12/18 10:59:59;;;;;;;40.50;25.02;;;6.50;93.60;;;;;;5000878;28;20513;-69
2023/12/18 11:02:26;;;;;;;38.78;24.17;;;6.50;93.40;;;;;;5002196;28;20042;-70
2023/12/18 11:04:55;;;;;;;37.22;22.77;;;6.50;93.40;;;;;;5000523;28;20034;-71
2023/12/18 11:07:21;;;;;;;36.38;22.80;;;6.60;93.40;;;;;;5001033;28;20038;-69
2023/12/18 11:09:49;;;;;;;40.17;24.33;;;6.50;93.40;;;;;;4998870;28;20137;-71
2023/12/18 11:12:17;;;;;;;33.95;21.52;;;6.50;93.30;;;;;;4998463;28;20673;-71
2023/12/18 11:14:54;;;;;;;39.33;24.10;;;6.50;93.40;;;;;;4994007;28;20032;-70
2023/12/18 11:17:28;;;;;;;34.72;23.30;;;6.40;93.40;;;;;;4993143;28;20506;-71
2023/12/18 11:20:16;;;;;;;38.43;25.33;;;6.50;93.40;;;;;;4999627;28;20030;-69
2023/12/18 11:22:45;;;;;;;33.28;23.55;;;6.50;93.60;;;;;;4997847;28;20562;-72
2023/12/18 11:25:12;;;;;;;44.35;31.63;;;6.60;93.40;;;;;;5001165;28;20076;-72
2023/12/18 11:27:40;;;;;;;61.05;43.25;;;6.50;93.50;;;;;;5000945;28;20038;-69
2023/12/18 11:30:26;;;;;;;47.75;31.48;;;6.60;93.50;;;;;;5000317;28;20117;-71
2023/12/18 11:32:52;;;;;;;47.85;29.60;;;6.60;93.40;;;;;;4999245;28;20041;-69
2023/12/18 11:35:28;;;;;;;70.95;42.95;;;6.70;93.30;;;;;;5001570;28;20030;-71
2023/12/18 11:38:00;;;;;;;48.08;31.40;;;6.70;93.10;;;;;;5001408;28;20042;-70
2023/12/18 11:40:32;;;;;;;33.90;23.02;;;6.70;93.10;;;;;;4994826;28;20022;-69
2023/12/18 11:42:58;;;;;;;39.08;27.38;;;6.60;93.10;;;;;;4982688;28;20602;-71
2023/12/18 11:45:25;;;;;;;37.60;24.33;;;6.60;93.20;;;;;;4995494;28;20030;-71
2023/12/18 11:47:52;;;;;;;35.58;22.95;;;6.60;93.10;;;;;;4998694;28;20029;-72
2023/12/18 11:50:24;;;;;;;35.65;24.38;;;6.60;93.20;;;;;;4998172;28;20123;-73
2023/12/18 11:52:50;;;;;;;32.92;22.40;;;6.60;93.10;;;;;;4978945;28;20391;-71
2023/12/18 11:55:37;;;;;;;31.52;22.50;;;6.60;93.00;;;;;;4998658;28;20379;-70
2023/12/18 11:58:04;;;;;;;34.97;21.88;;;6.60;92.90;;;;;;4996651;28;20482;-70
2023/12/18 12:00:30;;;;;;;34.92;22.38;;;6.70;92.80;;;;;;4996804;28;20458;-72
2023/12/18 12:02:58;;;;;;;30.50;22.10;;;6.60;92.90;;;;;;4968484;28;20056;-71
2023/12/18 12:05:28;;;;;;;33.58;22.45;;;6.70;93.00;;;;;;4980174;28;20116;-72
2023/12/18 12:08:07;;;;;;;30.08;21.50;;;6.70;92.90;;;;;;4997733;28;20077;-72
2023/12/18 12:10:43;;;;;;;34.50;22.85;;;6.70;93.00;;;;;;4995999;28;20041;-72
2023/12/18 12:13:27;;;;;;;31.50;21.45;;;6.70;92.80;;;;;;4994553;28;20046;-73
2023/12/18 12:16:00;;;;;;;34.20;23.05;;;6.70;92.80;;;;;;4973254;28;20462;-74
2023/12/18 12:18:28;;;;;;;34.90;22.73;;;6.70;93.00;;;;;;4973001;28;20026;-72
2023/12/18 12:20:54;;;;;;;44.97;28.77;;;6.80;92.80;;;;;;4997656;28;20074;-71
2023/12/18 12:23:26;;;;;;;44.72;29.48;;;6.80;92.80;;;;;;4995955;28;20096;-72
2023/12/18 12:25:57;;;;;;;41.97;30.05;;;6.80;92.80;;;;;;4984362;28;20030;-75
2023/12/18 12:28:23;;;;;;;44.72;30.33;;;6.90;92.70;;;;;;4981788;28;20036;-76
2023/12/18 12:30:49;;;;;;;39.40;27.63;;;6.90;92.60;;;;;;4997190;28;20025;-71
2023/12/18 12:33:16;;;;;;;43.38;29.98;;;6.90;92.50;;;;;;5004302;28;20152;-73
2023/12/18 12:35:43;;;;;;;38.10;26.45;;;6.90;92.60;;;;;;5001018;28;20140;-73